EHEH/EIN METAR and TAF weather

Enter ICAO airport designator
Station Type Date Time Source
EHEH METAR 2022/01/26 13:55 UTC NOAA

EHEH 261355Z AUTO 22010KT 200V260 5000 BR FEW010 BKN014 OVC017 04/02 Q1032 GRN TEMPO SCT008 OVC014


Station Type Date Time Source
EHEH Decoded METAR 2022/01/26 13:55 UTC NOAA

Eindhoven, Netherlands (EHEH) 51-27N 005-25E 28M
Jan 26, 2022 - 08:55 AM EST / 2022.01.26 1355 UTC
Wind: from the SW (220 degrees) at 12 MPH (10 KT) (direction variable):0
Visibility: 3 mile(s):0
Sky conditions: overcast
Weather: mist
Temperature: 39 F (4 C)
Dew Point: 35 F (2 C)
Relative Humidity: 86%
Pressure (altimeter): 30.47 in. Hg (1032 hPa)
ob: EHEH 261355Z AUTO 22010KT 200V260 5000 BR FEW010 BKN014 OVC017 04/02 Q1032 GRN TEMPO SCT008 OVC014
cycle: 14

Station Type Date Time Source
EHEH TAF 2022/01/26 12:58 UTC NOAA

TAF EHEH 261152Z 2612/2718 23007KT 3700 BR OVC015
BECMG 2612/2615 5000 NSW PROB40 2612/2621 4000 BR SCT008 BKN010
BECMG 2619/2622 23010KT
TEMPO 2621/2704 BKN020
BECMG 2704/2707 4500 BR -RA FEW006 BKN010 OVC015 PROB40
TEMPO 2707/2713 2000 DZRA SCT004 BKN006
BECMG 2712/2714 30010KT 9999 NSW SCT025

Example: see airport list